createdAt,value
2019-02-04T00:00:39.975Z,70.68
2019-02-04T00:03:14.339Z,70.75
2019-02-04T00:05:43.022Z,70.84
2019-02-04T00:08:11.746Z,71.60
2019-02-04T00:10:40.501Z,71.69
2019-02-04T00:13:09.176Z,71.71
2019-02-04T00:15:38.107Z,72.23
2019-02-04T00:18:07.271Z,71.77
2019-02-04T00:20:35.943Z,71.18
2019-02-04T00:23:04.772Z,70.78
2019-02-04T00:25:33.431Z,70.82
2019-02-04T00:28:02.138Z,70.96
2019-02-04T00:30:31.493Z,71.43
2019-02-04T00:33:00.161Z,71.35
2019-02-04T00:35:28.838Z,72.03
2019-02-04T00:37:57.493Z,71.58
2019-02-04T00:40:28.495Z,72.01
2019-02-04T00:42:57.366Z,72.27
2019-02-04T00:45:26.077Z,72.78
2019-02-04T00:47:54.741Z,73.08
2019-02-04T00:50:24.714Z,72.92
2019-02-04T00:52:53.591Z,72.57
2019-02-04T00:55:22.414Z,72.32
2019-02-04T00:57:51.159Z,72.46
2019-02-04T01:00:26.924Z,72.15
2019-02-04T01:02:56.294Z,71.56
2019-02-04T01:05:25.464Z,71.70
2019-02-04T01:07:54.276Z,71.44
2019-02-04T01:10:25.337Z,71.36
2019-02-04T01:12:54.206Z,71.20
2019-02-04T01:15:22.964Z,71.36
2019-02-04T01:17:51.644Z,71.29
2019-02-04T01:20:26.289Z,71.53
2019-02-04T01:22:55.390Z,71.72
2019-02-04T01:25:24.143Z,71.69
2019-02-04T01:27:52.807Z,71.79
2019-02-04T01:30:23.786Z,71.69
2019-02-04T01:32:52.454Z,71.33
2019-02-04T01:35:21.201Z,70.77
2019-02-04T01:37:50.021Z,70.81
2019-02-04T01:40:21.333Z,70.51
2019-02-04T01:42:50.210Z,70.33
2019-02-04T01:45:18.904Z,70.27
2019-02-04T01:47:47.561Z,70.39
2019-02-04T01:50:18.345Z,70.55
2019-02-04T01:52:46.995Z,70.68
2019-02-04T01:55:16.079Z,71.25
2019-02-04T01:57:47.001Z,69.99
2019-02-04T02:00:18.377Z,68.89
2019-02-04T02:02:47.242Z,68.47
2019-02-04T02:05:16.978Z,68.56
2019-02-04T02:07:45.679Z,68.29
2019-02-04T02:10:17.507Z,67.98
2019-02-04T02:12:46.464Z,68.05
2019-02-04T02:15:15.127Z,68.33
2019-02-04T02:17:43.793Z,68.72
2019-02-04T02:20:15.548Z,68.90
2019-02-04T02:22:44.316Z,68.99
2019-02-04T02:25:13.023Z,68.80
2019-02-04T02:27:41.702Z,69.17
2019-02-04T02:30:13.292Z,68.50
2019-02-04T02:32:42.124Z,68.61
2019-02-04T02:35:10.791Z,68.66
2019-02-04T02:37:39.455Z,68.78
2019-02-04T02:40:11.127Z,68.34
2019-02-04T02:42:39.786Z,68.59
2019-02-04T02:45:09.449Z,68.62
2019-02-04T02:47:38.862Z,68.62
2019-02-04T02:50:10.624Z,68.39
2019-02-04T02:52:39.680Z,68.15
2019-02-04T02:55:11.410Z,68.29
2019-02-04T02:57:40.081Z,68.29
2019-02-04T03:00:12.160Z,68.39
2019-02-04T03:02:40.819Z,68.34
2019-02-04T03:05:12.588Z,68.71
2019-02-04T03:07:41.254Z,68.97
2019-02-04T03:10:18.308Z,68.58
2019-02-04T03:12:47.455Z,68.80
2019-02-04T03:15:16.230Z,68.67
2019-02-04T03:17:52.113Z,68.96
2019-02-04T03:20:15.489Z,68.71
2019-02-04T03:22:44.142Z,68.87
2019-02-04T03:25:14.411Z,68.88
2019-02-04T03:27:43.657Z,69.18
2019-02-04T03:30:18.183Z,69.21
2019-02-04T03:32:46.920Z,69.45
2019-02-04T03:35:15.594Z,69.55
2019-02-04T03:37:44.290Z,70.05
2019-02-04T03:40:16.066Z,70.06
2019-02-04T03:42:44.740Z,69.50
2019-02-04T03:45:14.056Z,69.19
2019-02-04T03:47:44.486Z,69.42
2019-02-04T03:50:14.557Z,68.88
2019-02-04T03:52:43.221Z,68.93
2019-02-04T03:55:14.034Z,69.18
2019-02-04T03:57:42.800Z,68.60
2019-02-04T04:00:20.809Z,69.04
2019-02-04T04:02:50.311Z,68.93
2019-02-04T04:05:19.156Z,69.07
2019-02-04T04:07:47.862Z,68.87
2019-02-04T04:10:17.349Z,68.66
2019-02-04T04:12:46.320Z,68.87
2019-02-04T04:15:16.706Z,68.73
2019-02-04T04:17:45.546Z,68.13
2019-02-04T04:20:21.148Z,67.67
2019-02-04T04:22:50.035Z,67.55
2019-02-04T04:25:19.191Z,67.68
2019-02-04T04:27:48.076Z,67.95
2019-02-04T04:30:22.468Z,68.31
2019-02-04T04:32:51.110Z,68.24
2019-02-04T04:35:19.880Z,67.82
2019-02-04T04:37:48.676Z,67.61
2019-02-04T04:40:17.881Z,67.50
2019-02-04T04:42:46.661Z,67.48
2019-02-04T04:45:20.905Z,67.83
2019-02-04T04:47:50.359Z,67.82
2019-02-04T04:50:19.019Z,68.47
2019-02-04T04:52:47.882Z,68.80
2019-02-04T04:55:27.038Z,68.73
2019-02-04T04:57:56.710Z,68.73
2019-02-04T05:00:31.089Z,68.41
2019-02-04T05:03:00.188Z,68.25
2019-02-04T05:05:28.844Z,68.30
2019-02-04T05:07:57.539Z,68.36
2019-02-04T05:10:26.207Z,68.34
2019-02-04T05:12:54.920Z,68.27
2019-02-04T05:15:25.811Z,68.24
2019-02-04T05:17:54.482Z,68.78
2019-02-04T05:20:23.447Z,68.78
2019-02-04T05:22:52.215Z,68.98
2019-02-04T05:25:21.499Z,69.16
2019-02-04T05:27:50.175Z,69.02
2019-02-04T05:30:24.289Z,69.14
2019-02-04T05:32:52.988Z,69.55
2019-02-04T05:35:21.813Z,69.50
2019-02-04T05:37:50.879Z,69.87
2019-02-04T05:40:20.059Z,69.66
2019-02-04T05:42:49.041Z,69.72
2019-02-04T05:45:19.645Z,69.73
2019-02-04T05:47:48.814Z,69.75
2019-02-04T05:50:19.220Z,70.19
2019-02-04T05:52:48.823Z,70.10
2019-02-04T05:55:19.286Z,70.03
2019-02-04T05:57:48.133Z,70.10
2019-02-04T06:00:26.872Z,69.85
2019-02-04T06:02:55.536Z,70.13
2019-02-04T06:05:24.408Z,69.09
2019-02-04T06:07:53.169Z,69.31
2019-02-04T06:10:21.878Z,69.32
2019-02-04T06:12:50.544Z,69.40
2019-02-04T06:15:19.299Z,69.36
2019-02-04T06:17:48.385Z,68.96
2019-02-04T06:20:24.875Z,68.91
2019-02-04T06:22:53.928Z,68.72
2019-02-04T06:25:22.604Z,68.87
2019-02-04T06:27:51.275Z,68.67
2019-02-04T06:30:19.962Z,68.55
2019-02-04T06:32:48.638Z,68.48
2019-02-04T06:35:18.227Z,68.35
2019-02-04T06:37:47.722Z,68.36
2019-02-04T06:40:18.431Z,68.55
2019-02-04T06:42:49.909Z,68.72
2019-02-04T06:45:19.088Z,68.04
2019-02-04T06:47:55.138Z,68.01
2019-02-04T06:50:46.193Z,68.01
2019-02-04T06:53:14.976Z,68.00
2019-02-04T06:55:43.760Z,67.84
2019-02-04T06:58:12.413Z,67.77
2019-02-04T07:00:41.459Z,67.90
2019-02-04T07:03:10.253Z,67.25
2019-02-04T07:05:43.924Z,67.06
2019-02-04T07:08:09.481Z,66.72
2019-02-04T07:10:38.146Z,65.89
2019-02-04T07:13:07.022Z,65.82
2019-02-04T07:15:35.972Z,65.87
2019-02-04T07:18:04.781Z,65.16
2019-02-04T07:20:33.463Z,65.03
2019-02-04T07:23:02.148Z,64.77
2019-02-04T07:25:32.391Z,64.67
2019-02-04T07:28:01.389Z,64.28
2019-02-04T07:30:30.297Z,64.34
2019-02-04T07:32:59.126Z,63.62
2019-02-04T07:35:28.115Z,63.66
2019-02-04T07:37:56.808Z,63.61
2019-02-04T07:40:28.324Z,63.33
2019-02-04T07:42:57.005Z,63.07
2019-02-04T07:45:25.932Z,62.60
2019-02-04T07:47:54.838Z,62.10
2019-02-04T07:50:24.122Z,61.67
2019-02-04T07:52:54.587Z,60.24
2019-02-04T07:55:23.275Z,59.48
2019-02-04T07:57:52.009Z,59.32
2019-02-04T08:00:23.273Z,59.74
2019-02-04T08:02:52.349Z,59.78
2019-02-04T08:05:21.145Z,60.28
2019-02-04T08:07:50.172Z,60.20
2019-02-04T08:10:19.072Z,60.08
2019-02-04T08:12:48.017Z,60.52
2019-02-04T08:15:19.516Z,60.50
2019-02-04T08:17:48.494Z,60.91
2019-02-04T08:20:17.275Z,61.05
2019-02-04T08:22:46.412Z,60.95
2019-02-04T08:25:17.092Z,60.86
2019-02-04T08:27:46.712Z,59.91
2019-02-04T08:30:33.668Z,60.74
2019-02-04T08:33:02.830Z,60.67
2019-02-04T08:35:32.169Z,60.58
2019-02-04T08:38:01.053Z,60.43
2019-02-04T08:40:30.507Z,59.55
2019-02-04T08:43:00.334Z,58.68
2019-02-04T08:45:29.285Z,58.34
2019-02-04T08:47:58.015Z,57.63
2019-02-04T08:50:28.657Z,57.66
2019-02-04T08:52:57.375Z,58.56
2019-02-04T08:55:26.173Z,57.96
2019-02-04T08:57:55.814Z,57.78
2019-02-04T09:00:25.976Z,57.33
2019-02-04T09:02:54.702Z,57.45
2019-02-04T09:05:24.691Z,56.28
2019-02-04T09:07:53.377Z,55.60
2019-02-04T09:10:27.575Z,54.82
2019-02-04T09:12:56.308Z,54.78
2019-02-04T09:15:25.080Z,54.96
2019-02-04T09:17:54.067Z,54.75
2019-02-04T09:20:23.317Z,54.26
2019-02-04T09:22:52.445Z,54.04
2019-02-04T09:25:24.149Z,54.24
2019-02-04T09:27:53.314Z,53.43
2019-02-04T09:30:24.162Z,53.04
2019-02-04T09:32:53.430Z,53.18
2019-02-04T09:35:23.349Z,52.45
2019-02-04T09:37:52.719Z,51.93
2019-02-04T09:40:30.659Z,51.09
2019-02-04T09:42:59.343Z,51.07
2019-02-04T09:45:28.251Z,51.09
2019-02-04T09:47:58.145Z,51.22
2019-02-04T09:50:32.762Z,50.98
2019-02-04T09:53:01.525Z,50.25
2019-02-04T09:55:33.357Z,50.00
2019-02-04T09:58:02.194Z,49.58
2019-02-04T10:00:33.841Z,49.99
2019-02-04T10:03:02.498Z,48.71
2019-02-04T10:05:31.351Z,48.27
2019-02-04T10:08:00.637Z,48.26
2019-02-04T10:10:33.910Z,48.02
2019-02-04T10:13:02.702Z,47.62
2019-02-04T10:15:34.475Z,47.38
2019-02-04T10:18:03.219Z,48.00
2019-02-04T10:20:34.650Z,49.12
2019-02-04T10:23:04.461Z,49.01
2019-02-04T10:25:36.182Z,48.54
2019-02-04T10:28:06.076Z,48.43
2019-02-04T10:30:34.767Z,48.94
2019-02-04T10:33:03.757Z,49.28
2019-02-04T10:35:33.033Z,49.75
2019-02-04T10:38:02.450Z,50.16
2019-02-04T10:40:31.778Z,51.14
2019-02-04T10:43:01.580Z,50.72
2019-02-04T10:45:30.673Z,50.37
2019-02-04T10:47:59.313Z,50.27
2019-02-04T10:50:31.213Z,49.42
2019-02-04T10:53:00.242Z,48.87
2019-02-04T10:55:29.055Z,48.69
2019-02-04T10:57:57.879Z,48.48
2019-02-04T11:00:29.561Z,47.41
2019-02-04T11:02:59.973Z,47.21
2019-02-04T11:05:31.262Z,47.53
2019-02-04T11:08:04.967Z,46.76
2019-02-04T11:10:35.328Z,46.56
2019-02-04T11:13:07.297Z,46.51
2019-02-04T11:15:36.594Z,46.40
2019-02-04T11:18:06.005Z,46.32
2019-02-04T11:20:36.536Z,46.51
2019-02-04T11:23:07.804Z,46.58
2019-02-04T11:25:36.981Z,46.69
2019-02-04T11:28:10.927Z,46.98
2019-02-04T11:30:45.564Z,46.65
2019-02-04T11:33:14.599Z,45.85
2019-02-04T11:35:43.252Z,45.78
2019-02-04T11:38:12.263Z,46.20
2019-02-04T11:40:42.282Z,45.72
2019-02-04T11:43:13.339Z,45.11
2019-02-04T11:45:42.235Z,44.14
2019-02-04T11:48:13.576Z,44.68
2019-02-04T11:50:42.406Z,43.39
2019-02-04T11:53:11.435Z,41.80
2019-02-04T11:55:40.281Z,40.80
2019-02-04T11:58:11.079Z,38.88
2019-02-04T12:00:40.292Z,37.98
2019-02-04T12:03:12.278Z,37.72
2019-02-04T12:05:41.310Z,36.86
2019-02-04T12:08:11.856Z,36.77
2019-02-04T12:10:52.444Z,36.77
2019-02-04T12:13:24.261Z,35.75
2019-02-04T12:15:53.968Z,34.81
2019-02-04T12:18:22.806Z,35.40
2019-02-04T12:20:52.276Z,34.65
2019-02-04T12:23:21.427Z,32.54
2019-02-04T12:25:50.223Z,31.55
2019-02-04T12:28:19.272Z,31.92
2019-02-04T12:30:48.257Z,32.53
2019-02-04T12:33:17.485Z,33.37
2019-02-04T12:35:46.479Z,33.28
2019-02-04T12:38:18.272Z,33.82
2019-02-04T12:40:47.170Z,32.89
2019-02-04T12:43:15.954Z,30.52
2019-02-04T12:45:45.670Z,27.99
2019-02-04T12:48:14.499Z,26.10
2019-02-04T12:50:43.227Z,24.35
2019-02-04T12:53:12.594Z,24.33
2019-02-04T12:55:41.482Z,24.21
2019-02-04T12:58:10.382Z,25.48
2019-02-04T13:00:39.281Z,25.94
2019-02-04T13:03:08.001Z,26.83
2019-02-04T13:05:42.212Z,25.95
2019-02-04T13:08:12.449Z,27.08
2019-02-04T13:10:41.505Z,28.98
2019-02-04T13:13:12.918Z,33.70
2019-02-04T13:15:42.092Z,33.58
2019-02-04T13:18:13.758Z,32.64
2019-02-04T13:20:43.323Z,33.07
2019-02-04T13:23:12.219Z,32.16
2019-02-04T13:25:41.033Z,31.37
2019-02-04T13:28:12.686Z,31.48
2019-02-04T13:30:44.305Z,32.79
2019-02-04T13:33:13.172Z,32.93
2019-02-04T13:35:42.104Z,32.94
2019-02-04T13:38:11.300Z,32.67
2019-02-04T13:40:44.356Z,33.77
2019-02-04T13:43:12.428Z,34.28
2019-02-04T13:45:41.333Z,35.05
2019-02-04T13:48:10.915Z,36.72
2019-02-04T13:50:40.548Z,39.29
2019-02-04T13:53:11.053Z,41.11
2019-02-04T13:55:44.277Z,42.72
2019-02-04T13:58:13.222Z,44.20
2019-02-04T14:00:49.186Z,45.35
2019-02-04T14:03:18.231Z,45.23
2019-02-04T14:05:47.335Z,46.04
2019-02-04T14:08:16.117Z,45.06
2019-02-04T14:10:46.244Z,41.51
2019-02-04T14:13:15.319Z,36.90
2019-02-04T14:15:44.533Z,33.63
2019-02-04T14:18:13.581Z,33.41
2019-02-04T14:20:42.365Z,35.34
2019-02-04T14:23:11.368Z,37.05
2019-02-04T14:25:40.576Z,38.22
2019-02-04T14:28:09.257Z,40.55
2019-02-04T14:30:39.572Z,41.63
2019-02-04T14:33:09.887Z,42.53
2019-02-04T14:35:38.651Z,43.38
2019-02-04T14:38:07.859Z,44.72
2019-02-04T14:40:36.994Z,46.07
2019-02-04T14:43:09.275Z,46.39
2019-02-04T14:45:56.314Z,45.63
2019-02-04T14:48:43.061Z,45.07
2019-02-04T14:51:17.897Z,45.40
2019-02-04T14:54:12.393Z,47.28
2019-02-04T14:56:52.855Z,48.04
2019-02-04T14:59:24.994Z,49.70
2019-02-04T15:02:02.561Z,50.45
2019-02-04T15:04:39.891Z,50.72
2019-02-04T15:07:23.498Z,51.13
2019-02-04T15:10:04.454Z,51.50
2019-02-04T15:12:45.289Z,51.71
2019-02-04T15:15:32.155Z,51.67
2019-02-04T15:18:06.971Z,52.06
2019-02-04T15:21:04.157Z,52.60
2019-02-04T15:23:41.358Z,53.09
2019-02-04T15:26:24.918Z,53.60
2019-02-04T15:29:05.684Z,53.82
2019-02-04T15:31:46.803Z,54.27
2019-02-04T15:34:27.260Z,55.04
2019-02-04T15:37:01.643Z,55.80
2019-02-04T15:39:55.995Z,55.98
2019-02-04T15:42:32.369Z,56.45
2019-02-04T15:45:10.169Z,57.28
2019-02-04T15:47:41.914Z,57.55
2019-02-04T15:50:24.867Z,58.49
2019-02-04T15:52:53.539Z,58.94
2019-02-04T15:55:22.234Z,58.90
2019-02-04T15:57:51.046Z,59.12
2019-02-04T16:00:19.809Z,59.30
2019-02-04T16:02:48.524Z,59.67
2019-02-04T16:05:17.260Z,59.74
2019-02-04T16:07:46.775Z,59.64
2019-02-04T16:10:17.233Z,60.03
2019-02-04T16:12:47.842Z,60.12
2019-02-04T16:15:17.098Z,59.85
2019-02-04T16:17:45.990Z,60.74
2019-02-04T16:20:20.950Z,60.81
2019-02-04T16:22:57.901Z,60.65
2019-02-04T16:25:20.528Z,60.48
2019-02-04T16:27:49.246Z,61.25
2019-02-04T16:30:22.428Z,61.50
2019-02-04T16:32:52.974Z,61.60
2019-02-04T16:35:21.512Z,61.60
2019-02-04T16:37:50.988Z,61.48
2019-02-04T16:40:21.863Z,61.57
2019-02-04T16:42:50.634Z,61.82
2019-02-04T16:45:22.591Z,62.03
2019-02-04T16:47:51.958Z,62.10
2019-02-04T16:50:25.887Z,62.33
2019-02-04T16:52:54.609Z,62.48
2019-02-04T16:55:23.448Z,62.57
2019-02-04T16:57:54.397Z,62.85
2019-02-04T17:00:28.235Z,62.93
2019-02-04T17:02:56.932Z,62.89
2019-02-04T17:05:27.453Z,62.87
2019-02-04T17:07:56.468Z,63.24
2019-02-04T17:10:27.031Z,63.55
2019-02-04T17:12:56.299Z,63.49
2019-02-04T17:15:26.135Z,63.55
2019-02-04T17:17:54.943Z,63.91
2019-02-04T17:20:29.040Z,63.93
2019-02-04T17:22:57.727Z,64.44
2019-02-04T17:25:26.412Z,64.49
2019-02-04T17:27:55.765Z,64.93
2019-02-04T17:30:25.783Z,65.07
2019-02-04T17:32:54.756Z,65.70
2019-02-04T17:35:23.789Z,65.32
2019-02-04T17:37:52.660Z,65.90
2019-02-04T17:40:23.588Z,65.90
2019-02-04T17:42:54.163Z,65.85
2019-02-04T17:45:22.869Z,66.05
2019-02-04T17:47:53.074Z,66.55
2019-02-04T17:50:23.305Z,66.36
2019-02-04T17:52:52.220Z,66.62
2019-02-04T17:55:28.639Z,66.85
2019-02-04T17:57:57.372Z,66.71
2019-02-04T18:00:34.561Z,67.22
2019-02-04T18:03:03.231Z,67.21
2019-02-04T18:05:32.011Z,67.47
2019-02-04T18:08:02.109Z,67.47
2019-02-04T18:10:31.383Z,67.41
2019-02-04T18:13:00.031Z,67.80
2019-02-04T18:15:28.939Z,68.11
2019-02-04T18:17:57.569Z,67.96
2019-02-04T18:20:26.254Z,67.97
2019-02-04T18:22:54.941Z,67.86
2019-02-04T18:25:23.793Z,67.80
2019-02-04T18:27:52.525Z,68.12
2019-02-04T18:30:25.946Z,67.64
2019-02-04T18:32:55.115Z,67.65
2019-02-04T18:35:24.230Z,67.87
2019-02-04T18:37:53.171Z,67.84
2019-02-04T18:40:23.470Z,67.79
2019-02-04T18:42:53.172Z,67.75
2019-02-04T18:45:24.819Z,67.96
2019-02-04T18:47:53.614Z,67.77
2019-02-04T18:50:24.605Z,67.96
2019-02-04T18:52:53.930Z,67.49
2019-02-04T18:55:25.502Z,67.34
2019-02-04T18:57:54.633Z,67.62
2019-02-04T19:00:26.030Z,67.62
2019-02-04T19:02:55.301Z,67.58
2019-02-04T19:05:26.720Z,67.77
2019-02-04T19:07:54.975Z,67.91
2019-02-04T19:10:24.564Z,67.83
2019-02-04T19:12:53.339Z,68.06
2019-02-04T19:15:27.914Z,67.78
2019-02-04T19:18:02.644Z,68.02
2019-02-04T19:20:31.432Z,68.33
2019-02-04T19:23:00.120Z,68.67
2019-02-04T19:25:28.790Z,69.55
2019-02-04T19:27:57.659Z,69.37
2019-02-04T19:30:38.092Z,69.06
2019-02-04T19:33:07.420Z,69.28
2019-02-04T19:35:36.092Z,69.02
2019-02-04T19:38:05.086Z,69.37
2019-02-04T19:40:33.783Z,69.89
2019-02-04T19:43:02.680Z,69.69
2019-02-04T19:45:31.940Z,69.09
2019-02-04T19:48:03.076Z,69.07
2019-02-04T19:50:33.217Z,69.23
2019-02-04T19:53:02.337Z,68.96
2019-02-04T19:55:30.991Z,69.14
2019-02-04T19:58:00.369Z,69.37
2019-02-04T20:00:29.633Z,69.11
2019-02-04T20:02:58.494Z,69.00
2019-02-04T20:05:29.207Z,69.21
2019-02-04T20:07:58.186Z,68.95
2019-02-04T20:10:32.973Z,68.74
2019-02-04T20:13:02.624Z,69.29
2019-02-04T20:15:34.315Z,69.59
2019-02-04T20:18:03.173Z,69.10
2019-02-04T20:20:31.935Z,69.30
2019-02-04T20:23:00.618Z,69.25
2019-02-04T20:25:36.503Z,68.95
2019-02-04T20:28:07.702Z,69.16
2019-02-04T20:30:46.105Z,68.96
2019-02-04T20:33:14.806Z,69.73
2019-02-04T20:35:43.472Z,69.49
2019-02-04T20:38:12.222Z,69.31
2019-02-04T20:40:42.504Z,69.23
2019-02-04T20:43:11.169Z,69.52
2019-02-04T20:45:39.907Z,69.67
2019-02-04T20:48:11.287Z,69.81
2019-02-04T20:50:42.639Z,69.52
2019-02-04T20:53:11.719Z,70.19
2019-02-04T20:55:40.874Z,70.27
2019-02-04T20:58:09.833Z,70.62
2019-02-04T21:00:38.630Z,71.02
2019-02-04T21:03:07.790Z,70.76
2019-02-04T21:05:36.567Z,71.47
2019-02-04T21:08:06.377Z,71.07
2019-02-04T21:10:35.773Z,71.33
2019-02-04T21:13:05.236Z,71.49
2019-02-04T21:15:33.901Z,71.77
2019-02-04T21:18:02.619Z,72.09
2019-02-04T21:20:31.789Z,71.62
2019-02-04T21:23:00.470Z,71.44
2019-02-04T21:25:29.322Z,71.18
2019-02-04T21:27:57.986Z,71.00
2019-02-04T21:30:32.056Z,71.00
2019-02-04T21:33:01.630Z,70.81
2019-02-04T21:35:30.712Z,70.68
2019-02-04T21:37:59.391Z,70.71
2019-02-04T21:40:28.600Z,69.96
2019-02-04T21:42:57.258Z,70.24
2019-02-04T21:45:27.135Z,70.09
2019-02-04T21:47:55.804Z,70.22
2019-02-04T21:50:27.131Z,70.36
2019-02-04T21:52:56.206Z,70.31
2019-02-04T21:55:25.573Z,70.65
2019-02-04T21:57:54.563Z,70.42
2019-02-04T22:00:34.757Z,70.59
2019-02-04T22:03:05.014Z,70.38
2019-02-04T22:05:35.452Z,70.03
2019-02-04T22:08:05.771Z,70.21
2019-02-04T22:10:34.947Z,70.34
2019-02-04T22:13:03.703Z,70.01
2019-02-04T22:15:32.843Z,69.98
2019-02-04T22:18:01.598Z,69.60
2019-02-04T22:20:30.251Z,70.07
2019-02-04T22:22:58.923Z,69.57
2019-02-04T22:25:27.820Z,70.02
2019-02-04T22:27:56.492Z,69.22
2019-02-04T22:30:30.329Z,69.61
2019-02-04T22:32:59.281Z,69.00
2019-02-04T22:35:28.289Z,68.94
2019-02-04T22:37:57.511Z,68.88
2019-02-04T22:40:29.901Z,69.12
2019-02-04T22:42:58.897Z,69.39
2019-02-04T22:45:27.915Z,69.02
2019-02-04T22:47:56.856Z,69.55
2019-02-04T22:50:28.214Z,69.60
2019-02-04T22:52:57.205Z,69.47
2019-02-04T22:55:31.990Z,69.25
2019-02-04T22:57:56.374Z,69.13
2019-02-04T23:00:51.853Z,69.64
2019-02-04T23:03:23.575Z,69.30
2019-02-04T23:05:52.496Z,69.04
2019-02-04T23:08:21.318Z,69.09
2019-02-04T23:10:50.166Z,68.74
2019-02-04T23:13:18.920Z,69.01
2019-02-04T23:15:47.739Z,68.74
2019-02-04T23:18:16.465Z,68.57
2019-02-04T23:20:45.142Z,68.30
2019-02-04T23:23:13.811Z,68.11
2019-02-04T23:25:43.705Z,68.33
2019-02-04T23:28:12.575Z,68.59
2019-02-04T23:30:41.252Z,68.73
2019-02-04T23:33:10.026Z,69.18
2019-02-04T23:35:38.692Z,69.26
2019-02-04T23:38:07.884Z,69.49
2019-02-04T23:40:36.563Z,69.33
2019-02-04T23:43:05.976Z,69.86
2019-02-04T23:45:34.985Z,70.12
2019-02-04T23:48:04.153Z,70.56
2019-02-04T23:50:32.822Z,72.28
2019-02-04T23:53:01.573Z,72.91
2019-02-04T23:55:30.359Z,73.55
2019-02-04T23:57:59.107Z,73.60
